Flight Track Log - Related Links

Times and Time Zones

All times are in EDT time to prevent confusion due to time zone crossing. See the KAL1200 flight status page for this flight to view local times or setup timezone preferences in your user account.


Time Position Orientation Groundspeed Altitude Reporting Facility
EDT Latitude Longitude Course Direction KTS MPH feet Rate Location/Type
Mon 06:06:32 PM 34.5936 126.5697 North  Level Estimated
Mon 06:07:32 PM 34.6633 126.5747 North  Level Estimated
Mon 06:08:32 PM 34.7329 126.5797 North  Level Estimated
Mon 06:09:32 PM 34.8026 126.5847 North  Level Estimated
Mon 06:10:32 PM 34.8723 126.5898 North  Level Estimated
Mon 06:11:32 PM 34.9420 126.5948 North  Level Estimated
Mon 06:12:32 PM 35.0116 126.5999 North  Level Estimated
Mon 06:13:32 PM 35.0813 126.6049 North  Level Estimated
Mon 06:14:32 PM 35.1510 126.6100 North  Level Estimated
Mon 06:15:32 PM 35.2206 126.6151 North  Level Estimated
Mon 06:16:32 PM 35.2903 126.6201 North  Level Estimated
Mon 06:17:32 PM 35.3600 126.6252 North  Level Estimated
Mon 06:18:32 PM 35.4296 126.6303 North  Level Estimated
Mon 06:19:32 PM 35.4993 126.6354 North  Level Estimated
Mon 06:20:32 PM 35.5690 126.6405 North  Level Estimated
Mon 06:21:32 PM 35.6387 126.6457 North  Level Estimated
Mon 06:22:32 PM 35.7265 126.6522 North  Level Estimated
Mon 06:23:32 PM 35.8144 126.6587 North  Level Estimated
Mon 06:24:32 PM 35.9022 126.6652 North  Level Estimated
Mon 06:25:32 PM 35.9900 126.6717 North  Level Estimated
Mon 06:26:32 PM 36.0779 126.6782 North  Level Estimated
Mon 06:27:32 PM 36.1657 126.6848 North  Level Estimated
Mon 06:28:32 PM 36.2536 126.6913 North  Level Estimated
Mon 06:29:32 PM 36.3414 126.6979 North  Level Estimated
Mon 06:30:32 PM 36.4292 126.7045 North  Level Estimated
Mon 06:31:32 PM 36.5171 126.7111 North  Level Estimated
Mon 06:32:32 PM 36.6049 126.7177 North  Level Estimated
Mon 06:33:32 PM 36.6928 126.7244 North  Level Estimated
Mon 06:34:32 PM 36.7806 126.7310 North  Level Estimated
Mon 06:35:32 PM 36.8685 126.7377 North  Level Estimated
Mon 06:36:32 PM 36.9563 126.7444 North  Level Estimated
Mon 06:37:32 PM 37.0441 126.7511 North  Level Estimated
Mon 06:38:32 PM 37.1320 126.7578 North  Level Estimated
Mon 06:39:32 PM 37.2198 126.7645 North  Level Estimated
Mon 06:40:32 PM 37.3077 126.7712 North  Level Estimated

Login

Don't have an account? Register now (free) for customized features, flight alerts, and more!